sensor_id;sensor_type;location;lat;lon;timestamp;temperature;humidity
24382;DHT22;12502;50.678;7.172;2022-12-18T00:04:42;-6.00;99.90
24382;DHT22;12502;50.678;7.172;2022-12-18T00:09:44;-6.00;99.90
24382;DHT22;12502;50.678;7.172;2022-12-18T00:14:46;-6.10;99.90
24382;DHT22;12502;50.678;7.172;2022-12-18T00:19:48;-6.10;99.90
24382;DHT22;12502;50.678;7.172;2022-12-18T00:24:50;-6.10;99.90
24382;DHT22;12502;50.678;7.172;2022-12-18T00:29:51;-6.20;99.90
24382;DHT22;12502;50.678;7.172;2022-12-18T00:34:53;-6.20;99.90
24382;DHT22;12502;50.678;7.172;2022-12-18T00:39:54;-6.30;99.90
24382;DHT22;12502;50.678;7.172;2022-12-18T00:44:56;-6.30;99.90
24382;DHT22;12502;50.678;7.172;2022-12-18T00:49:58;-6.30;99.90
24382;DHT22;12502;50.678;7.172;2022-12-18T00:54:59;-6.30;99.90
24382;DHT22;12502;50.678;7.172;2022-12-18T01:00:10;-6.30;99.90
24382;DHT22;12502;50.678;7.172;2022-12-18T01:05:13;-6.30;99.90
24382;DHT22;12502;50.678;7.172;2022-12-18T01:10:14;-6.30;99.90
24382;DHT22;12502;50.678;7.172;2022-12-18T01:15:17;-6.30;99.90
24382;DHT22;12502;50.678;7.172;2022-12-18T01:20:19;-6.30;99.90
24382;DHT22;12502;50.678;7.172;2022-12-18T01:25:20;-6.40;99.90
24382;DHT22;12502;50.678;7.172;2022-12-18T01:30:22;-6.40;99.90
24382;DHT22;12502;50.678;7.172;2022-12-18T01:35:24;-6.50;99.90
24382;DHT22;12502;50.678;7.172;2022-12-18T01:40:25;-6.60;99.90
24382;DHT22;12502;50.678;7.172;2022-12-18T01:45:30;-6.60;99.90
24382;DHT22;12502;50.678;7.172;2022-12-18T01:50:36;-6.60;99.90
24382;DHT22;12502;50.678;7.172;2022-12-18T01:55:59;-6.60;99.90
24382;DHT22;12502;50.678;7.172;2022-12-18T02:01:01;-6.60;99.90
24382;DHT22;12502;50.678;7.172;2022-12-18T02:06:16;-6.60;99.90
24382;DHT22;12502;50.678;7.172;2022-12-18T02:11:30;-6.60;99.90
24382;DHT22;12502;50.678;7.172;2022-12-18T02:22:20;-6.70;99.90
24382;DHT22;12502;50.678;7.172;2022-12-18T02:27:26;-6.80;99.90
24382;DHT22;12502;50.678;7.172;2022-12-18T02:32:32;-6.80;99.90
24382;DHT22;12502;50.678;7.172;2022-12-18T02:37:36;-6.90;99.90
24382;DHT22;12502;50.678;7.172;2022-12-18T02:42:40;-6.90;99.90
24382;DHT22;12502;50.678;7.172;2022-12-18T02:47:44;-7.00;99.90
24382;DHT22;12502;50.678;7.172;2022-12-18T03:08:58;-7.10;99.90
24382;DHT22;12502;50.678;7.172;2022-12-18T03:14:01;-7.10;99.90
24382;DHT22;12502;50.678;7.172;2022-12-18T03:19:07;-7.10;99.90
24382;DHT22;12502;50.678;7.172;2022-12-18T03:24:11;-7.10;99.90
24382;DHT22;12502;50.678;7.172;2022-12-18T03:29:36;-7.20;99.90
24382;DHT22;12502;50.678;7.172;2022-12-18T03:34:40;-7.20;99.90
24382;DHT22;12502;50.678;7.172;2022-12-18T03:39:43;-7.20;99.90
24382;DHT22;12502;50.678;7.172;2022-12-18T03:45:11;-7.20;99.90
24382;DHT22;12502;50.678;7.172;2022-12-18T03:50:19;-7.20;99.90
24382;DHT22;12502;50.678;7.172;2022-12-18T03:55:22;-7.20;99.90
24382;DHT22;12502;50.678;7.172;2022-12-18T04:00:25;-7.20;99.90
24382;DHT22;12502;50.678;7.172;2022-12-18T04:05:28;-7.20;99.90
24382;DHT22;12502;50.678;7.172;2022-12-18T04:10:31;-7.20;99.90
24382;DHT22;12502;50.678;7.172;2022-12-18T04:15:34;-7.20;99.90
24382;DHT22;12502;50.678;7.172;2022-12-18T04:20:37;-7.20;99.90
24382;DHT22;12502;50.678;7.172;2022-12-18T04:25:38;-7.30;99.90
24382;DHT22;12502;50.678;7.172;2022-12-18T04:30:40;-7.20;99.90
24382;DHT22;12502;50.678;7.172;2022-12-18T04:35:42;-7.20;99.90
24382;DHT22;12502;50.678;7.172;2022-12-18T04:40:44;-7.10;99.90
24382;DHT22;12502;50.678;7.172;2022-12-18T04:45:46;-7.10;99.90
24382;DHT22;12502;50.678;7.172;2022-12-18T04:50:47;-7.00;99.90
24382;DHT22;12502;50.678;7.172;2022-12-18T04:55:49;-7.00;99.90
24382;DHT22;12502;50.678;7.172;2022-12-18T05:00:51;-7.00;99.90
24382;DHT22;12502;50.678;7.172;2022-12-18T05:05:53;-7.00;99.90
24382;DHT22;12502;50.678;7.172;2022-12-18T05:11:02;-7.00;99.90
24382;DHT22;12502;50.678;7.172;2022-12-18T05:16:06;-6.90;99.90
24382;DHT22;12502;50.678;7.172;2022-12-18T05:21:08;-7.00;99.90
24382;DHT22;12502;50.678;7.172;2022-12-18T05:26:15;-6.90;99.90
24382;DHT22;12502;50.678;7.172;2022-12-18T05:31:17;-6.90;99.90
24382;DHT22;12502;50.678;7.172;2022-12-18T05:36:19;-6.90;99.90
24382;DHT22;12502;50.678;7.172;2022-12-18T05:41:20;-6.90;99.90
24382;DHT22;12502;50.678;7.172;2022-12-18T05:46:22;-6.90;99.90
24382;DHT22;12502;50.678;7.172;2022-12-18T05:51:24;-6.90;99.90
24382;DHT22;12502;50.678;7.172;2022-12-18T05:56:25;-6.90;99.90
24382;DHT22;12502;50.678;7.172;2022-12-18T06:01:27;-6.90;99.90
24382;DHT22;12502;50.678;7.172;2022-12-18T06:06:29;-6.90;99.90
24382;DHT22;12502;50.678;7.172;2022-12-18T06:11:30;-6.90;99.90
24382;DHT22;12502;50.678;7.172;2022-12-18T06:16:32;-6.90;99.90
24382;DHT22;12502;50.678;7.172;2022-12-18T06:21:34;-6.90;99.90
24382;DHT22;12502;50.678;7.172;2022-12-18T06:26:40;-6.90;99.90
24382;DHT22;12502;50.678;7.172;2022-12-18T06:31:42;-6.80;99.90
24382;DHT22;12502;50.678;7.172;2022-12-18T06:36:44;-6.70;99.90
24382;DHT22;12502;50.678;7.172;2022-12-18T06:41:46;-6.70;99.90
24382;DHT22;12502;50.678;7.172;2022-12-18T06:46:47;-6.60;99.90
24382;DHT22;12502;50.678;7.172;2022-12-18T06:51:49;-6.60;99.90
24382;DHT22;12502;50.678;7.172;2022-12-18T06:56:51;-6.50;99.90
24382;DHT22;12502;50.678;7.172;2022-12-18T07:01:52;-6.50;99.90
24382;DHT22;12502;50.678;7.172;2022-12-18T07:06:54;-6.50;99.90
24382;DHT22;12502;50.678;7.172;2022-12-18T07:11:56;-6.50;99.90
24382;DHT22;12502;50.678;7.172;2022-12-18T07:16:58;-6.50;99.90
24382;DHT22;12502;50.678;7.172;2022-12-18T07:22:00;-6.50;99.90
24382;DHT22;12502;50.678;7.172;2022-12-18T07:27:03;-6.50;99.90
24382;DHT22;12502;50.678;7.172;2022-12-18T07:32:05;-6.40;99.90
24382;DHT22;12502;50.678;7.172;2022-12-18T07:37:07;-6.40;99.90
24382;DHT22;12502;50.678;7.172;2022-12-18T07:42:08;-6.40;99.90
24382;DHT22;12502;50.678;7.172;2022-12-18T07:47:29;-6.40;99.90
24382;DHT22;12502;50.678;7.172;2022-12-18T07:52:31;-6.40;99.90
24382;DHT22;12502;50.678;7.172;2022-12-18T07:57:33;-6.40;99.90
24382;DHT22;12502;50.678;7.172;2022-12-18T08:02:51;-6.40;99.90
24382;DHT22;12502;50.678;7.172;2022-12-18T08:07:54;-6.30;99.90
24382;DHT22;12502;50.678;7.172;2022-12-18T08:12:55;-6.30;99.90
24382;DHT22;12502;50.678;7.172;2022-12-18T08:18:05;-6.20;99.90
24382;DHT22;12502;50.678;7.172;2022-12-18T08:23:13;-6.10;99.90
24382;DHT22;12502;50.678;7.172;2022-12-18T08:28:16;-6.00;99.90
24382;DHT22;12502;50.678;7.172;2022-12-18T08:33:18;-5.80;99.90
24382;DHT22;12502;50.678;7.172;2022-12-18T08:38:20;-5.70;99.90
24382;DHT22;12502;50.678;7.172;2022-12-18T08:43:22;-5.60;99.90
24382;DHT22;12502;50.678;7.172;2022-12-18T08:48:42;-5.50;99.90
24382;DHT22;12502;50.678;7.172;2022-12-18T08:53:45;-5.30;99.90
24382;DHT22;12502;50.678;7.172;2022-12-18T08:58:52;-5.20;99.90
24382;DHT22;12502;50.678;7.172;2022-12-18T09:03:55;-5.10;99.90
24382;DHT22;12502;50.678;7.172;2022-12-18T09:08:58;-4.90;99.90
24382;DHT22;12502;50.678;7.172;2022-12-18T09:14:00;-4.80;99.90
24382;DHT22;12502;50.678;7.172;2022-12-18T09:19:04;-4.60;99.90
24382;DHT22;12502;50.678;7.172;2022-12-18T09:24:06;-4.40;99.90
24382;DHT22;12502;50.678;7.172;2022-12-18T09:29:09;-4.40;99.90
24382;DHT22;12502;50.678;7.172;2022-12-18T09:34:11;-4.30;99.90
24382;DHT22;12502;50.678;7.172;2022-12-18T09:39:13;-4.20;99.90
24382;DHT22;12502;50.678;7.172;2022-12-18T09:44:37;-4.10;99.90
24382;DHT22;12502;50.678;7.172;2022-12-18T09:49:49;-3.90;99.90
24382;DHT22;12502;50.678;7.172;2022-12-18T09:54:57;-3.80;99.90
24382;DHT22;12502;50.678;7.172;2022-12-18T10:00:23;-3.70;99.90
24382;DHT22;12502;50.678;7.172;2022-12-18T10:11:26;-3.50;99.90
24382;DHT22;12502;50.678;7.172;2022-12-18T10:27:18;-3.30;99.90
24382;DHT22;12502;50.678;7.172;2022-12-18T10:32:28;-3.30;99.90
24382;DHT22;12502;50.678;7.172;2022-12-18T10:37:30;-3.20;99.90
24382;DHT22;12502;50.678;7.172;2022-12-18T10:42:32;-3.10;99.90
24382;DHT22;12502;50.678;7.172;2022-12-18T10:47:34;-3.10;99.90
24382;DHT22;12502;50.678;7.172;2022-12-18T10:52:36;-2.90;99.90
24382;DHT22;12502;50.678;7.172;2022-12-18T10:57:45;-2.90;99.90
24382;DHT22;12502;50.678;7.172;2022-12-18T11:02:48;-2.90;99.90
24382;DHT22;12502;50.678;7.172;2022-12-18T11:07:50;-2.80;99.90
24382;DHT22;12502;50.678;7.172;2022-12-18T11:12:52;-2.80;99.90
24382;DHT22;12502;50.678;7.172;2022-12-18T11:17:54;-2.70;99.90
24382;DHT22;12502;50.678;7.172;2022-12-18T11:23:04;-2.70;99.90
24382;DHT22;12502;50.678;7.172;2022-12-18T11:33:27;-2.60;99.90
24382;DHT22;12502;50.678;7.172;2022-12-18T11:38:35;-2.50;99.90
24382;DHT22;12502;50.678;7.172;2022-12-18T11:43:42;-2.60;99.90
24382;DHT22;12502;50.678;7.172;2022-12-18T11:48:54;-2.50;99.90
24382;DHT22;12502;50.678;7.172;2022-12-18T11:54:00;-2.50;99.90
24382;DHT22;12502;50.678;7.172;2022-12-18T12:04:58;-2.40;99.90
24382;DHT22;12502;50.678;7.172;2022-12-18T12:10:26;-2.40;99.90
24382;DHT22;12502;50.678;7.172;2022-12-18T12:26:41;-2.40;99.90
24382;DHT22;12502;50.678;7.172;2022-12-18T12:42:58;-2.40;99.90
24382;DHT22;12502;50.678;7.172;2022-12-18T12:53:48;-2.30;99.90
24382;DHT22;12502;50.678;7.172;2022-12-18T12:58:52;-2.20;99.90
24382;DHT22;12502;50.678;7.172;2022-12-18T13:09:04;-2.10;99.90
24382;DHT22;12502;50.678;7.172;2022-12-18T13:14:24;-2.10;99.90
24382;DHT22;12502;50.678;7.172;2022-12-18T13:19:27;-2.00;99.90
24382;DHT22;12502;50.678;7.172;2022-12-18T13:24:31;-2.00;99.90
24382;DHT22;12502;50.678;7.172;2022-12-18T13:29:45;-2.00;99.90
24382;DHT22;12502;50.678;7.172;2022-12-18T13:34:48;-2.00;99.90
24382;DHT22;12502;50.678;7.172;2022-12-18T13:39:49;-2.00;99.90
24382;DHT22;12502;50.678;7.172;2022-12-18T13:44:51;-2.00;99.90
24382;DHT22;12502;50.678;7.172;2022-12-18T13:49:53;-2.10;99.90
24382;DHT22;12502;50.678;7.172;2022-12-18T13:55:01;-2.10;99.90
24382;DHT22;12502;50.678;7.172;2022-12-18T14:05:26;-2.10;99.90
24382;DHT22;12502;50.678;7.172;2022-12-18T14:10:28;-2.10;99.90
24382;DHT22;12502;50.678;7.172;2022-12-18T14:15:50;-2.10;99.90
24382;DHT22;12502;50.678;7.172;2022-12-18T14:20:55;-2.10;99.90
24382;DHT22;12502;50.678;7.172;2022-12-18T14:25:58;-2.10;99.90
24382;DHT22;12502;50.678;7.172;2022-12-18T14:31:20;-2.10;99.90
24382;DHT22;12502;50.678;7.172;2022-12-18T14:36:25;-2.10;99.90
24382;DHT22;12502;50.678;7.172;2022-12-18T14:41:27;-2.20;99.90
24382;DHT22;12502;50.678;7.172;2022-12-18T14:46:39;-2.20;99.90
24382;DHT22;12502;50.678;7.172;2022-12-18T14:51:51;-2.20;99.90
24382;DHT22;12502;50.678;7.172;2022-12-18T14:57:03;-2.20;99.90
24382;DHT22;12502;50.678;7.172;2022-12-18T15:02:23;-2.20;99.90
24382;DHT22;12502;50.678;7.172;2022-12-18T15:07:27;-2.20;99.90
24382;DHT22;12502;50.678;7.172;2022-12-18T15:12:34;-2.30;99.90
24382;DHT22;12502;50.678;7.172;2022-12-18T15:17:36;-2.30;99.90
24382;DHT22;12502;50.678;7.172;2022-12-18T15:22:38;-2.30;99.90
24382;DHT22;12502;50.678;7.172;2022-12-18T15:27:46;-2.30;99.90
24382;DHT22;12502;50.678;7.172;2022-12-18T15:32:48;-2.30;99.90
24382;DHT22;12502;50.678;7.172;2022-12-18T15:37:51;-2.30;99.90
24382;DHT22;12502;50.678;7.172;2022-12-18T15:42:54;-2.30;99.90
24382;DHT22;12502;50.678;7.172;2022-12-18T15:48:21;-2.40;99.90
24382;DHT22;12502;50.678;7.172;2022-12-18T15:53:24;-2.40;99.90
24382;DHT22;12502;50.678;7.172;2022-12-18T15:58:26;-2.40;99.90
24382;DHT22;12502;50.678;7.172;2022-12-18T16:03:31;-2.40;99.90
24382;DHT22;12502;50.678;7.172;2022-12-18T16:08:33;-2.50;99.90
24382;DHT22;12502;50.678;7.172;2022-12-18T16:13:34;-2.50;99.90
24382;DHT22;12502;50.678;7.172;2022-12-18T16:18:37;-2.50;99.90
24382;DHT22;12502;50.678;7.172;2022-12-18T16:23:38;-2.50;99.90
24382;DHT22;12502;50.678;7.172;2022-12-18T16:28:40;-2.50;99.90
24382;DHT22;12502;50.678;7.172;2022-12-18T16:33:48;-2.50;99.90
24382;DHT22;12502;50.678;7.172;2022-12-18T16:38:50;-2.50;99.90
24382;DHT22;12502;50.678;7.172;2022-12-18T16:43:52;-2.50;99.90
24382;DHT22;12502;50.678;7.172;2022-12-18T16:48:58;-2.40;99.90
24382;DHT22;12502;50.678;7.172;2022-12-18T16:54:00;-2.50;99.90
24382;DHT22;12502;50.678;7.172;2022-12-18T16:59:10;-2.50;99.90
24382;DHT22;12502;50.678;7.172;2022-12-18T17:04:13;-2.50;99.90
24382;DHT22;12502;50.678;7.172;2022-12-18T17:09:14;-2.50;99.90
24382;DHT22;12502;50.678;7.172;2022-12-18T17:14:19;-2.50;99.90
24382;DHT22;12502;50.678;7.172;2022-12-18T17:19:23;-2.50;99.90
24382;DHT22;12502;50.678;7.172;2022-12-18T17:24:24;-2.50;99.90
24382;DHT22;12502;50.678;7.172;2022-12-18T17:29:33;-2.50;99.90
24382;DHT22;12502;50.678;7.172;2022-12-18T17:34:35;-2.50;99.90
24382;DHT22;12502;50.678;7.172;2022-12-18T17:39:38;-2.50;99.90
24382;DHT22;12502;50.678;7.172;2022-12-18T17:44:40;-2.60;99.90
24382;DHT22;12502;50.678;7.172;2022-12-18T17:49:42;-2.60;99.90
24382;DHT22;12502;50.678;7.172;2022-12-18T17:54:44;-2.60;99.90
24382;DHT22;12502;50.678;7.172;2022-12-18T17:59:47;-2.60;99.90
24382;DHT22;12502;50.678;7.172;2022-12-18T18:04:49;-2.60;99.90
24382;DHT22;12502;50.678;7.172;2022-12-18T18:09:50;-2.60;99.90
24382;DHT22;12502;50.678;7.172;2022-12-18T18:14:52;-2.60;99.90
24382;DHT22;12502;50.678;7.172;2022-12-18T18:19:54;-2.60;99.90
24382;DHT22;12502;50.678;7.172;2022-12-18T18:24:56;-2.60;99.90
24382;DHT22;12502;50.678;7.172;2022-12-18T18:29:57;-2.60;99.90
24382;DHT22;12502;50.678;7.172;2022-12-18T18:34:59;-2.50;99.90
24382;DHT22;12502;50.678;7.172;2022-12-18T18:40:01;-2.50;99.90
24382;DHT22;12502;50.678;7.172;2022-12-18T18:45:04;-2.50;99.90
24382;DHT22;12502;50.678;7.172;2022-12-18T18:50:06;-2.50;99.90
24382;DHT22;12502;50.678;7.172;2022-12-18T18:55:08;-2.40;99.90
24382;DHT22;12502;50.678;7.172;2022-12-18T19:00:26;-2.40;99.90
24382;DHT22;12502;50.678;7.172;2022-12-18T19:05:30;-2.30;99.90
24382;DHT22;12502;50.678;7.172;2022-12-18T19:10:32;-2.30;99.90
24382;DHT22;12502;50.678;7.172;2022-12-18T19:15:34;-2.30;99.90
24382;DHT22;12502;50.678;7.172;2022-12-18T19:20:35;-2.20;99.90
24382;DHT22;12502;50.678;7.172;2022-12-18T19:25:38;-2.20;99.90
24382;DHT22;12502;50.678;7.172;2022-12-18T19:30:43;-2.20;99.90
24382;DHT22;12502;50.678;7.172;2022-12-18T19:35:45;-2.10;99.90
24382;DHT22;12502;50.678;7.172;2022-12-18T19:40:47;-2.10;99.90
24382;DHT22;12502;50.678;7.172;2022-12-18T19:45:56;-2.10;99.90
24382;DHT22;12502;50.678;7.172;2022-12-18T19:51:03;-2.00;99.90
24382;DHT22;12502;50.678;7.172;2022-12-18T19:56:08;-2.00;99.90
24382;DHT22;12502;50.678;7.172;2022-12-18T20:01:14;-1.90;99.90
24382;DHT22;12502;50.678;7.172;2022-12-18T20:11:48;-1.90;99.90
24382;DHT22;12502;50.678;7.172;2022-12-18T20:16:51;-1.80;99.90
24382;DHT22;12502;50.678;7.172;2022-12-18T20:21:54;-1.80;99.90
24382;DHT22;12502;50.678;7.172;2022-12-18T20:26:56;-1.80;99.90
24382;DHT22;12502;50.678;7.172;2022-12-18T20:31:59;-1.70;99.90
24382;DHT22;12502;50.678;7.172;2022-12-18T20:37:01;-1.70;99.90
24382;DHT22;12502;50.678;7.172;2022-12-18T20:42:03;-1.60;99.90
24382;DHT22;12502;50.678;7.172;2022-12-18T20:47:05;-1.60;99.90
24382;DHT22;12502;50.678;7.172;2022-12-18T20:52:09;-1.60;99.90
24382;DHT22;12502;50.678;7.172;2022-12-18T20:57:11;-1.50;99.90
24382;DHT22;12502;50.678;7.172;2022-12-18T21:02:12;-1.50;99.90
24382;DHT22;12502;50.678;7.172;2022-12-18T21:07:15;-1.50;99.90
24382;DHT22;12502;50.678;7.172;2022-12-18T21:12:16;-1.40;99.90
24382;DHT22;12502;50.678;7.172;2022-12-18T21:17:59;-1.40;99.90
24382;DHT22;12502;50.678;7.172;2022-12-18T21:23:01;-1.40;99.90
24382;DHT22;12502;50.678;7.172;2022-12-18T21:28:17;-1.30;99.90
24382;DHT22;12502;50.678;7.172;2022-12-18T21:33:19;-1.30;99.90
24382;DHT22;12502;50.678;7.172;2022-12-18T21:38:20;-1.20;99.90
24382;DHT22;12502;50.678;7.172;2022-12-18T21:43:22;-1.20;99.90
24382;DHT22;12502;50.678;7.172;2022-12-18T21:48:43;-1.20;99.90
24382;DHT22;12502;50.678;7.172;2022-12-18T21:53:44;-1.10;99.90
24382;DHT22;12502;50.678;7.172;2022-12-18T21:58:50;-1.10;99.90
24382;DHT22;12502;50.678;7.172;2022-12-18T22:03:58;-1.00;99.90
24382;DHT22;12502;50.678;7.172;2022-12-18T22:08:59;-0.90;99.90
24382;DHT22;12502;50.678;7.172;2022-12-18T22:14:01;-0.90;99.90
24382;DHT22;12502;50.678;7.172;2022-12-18T22:19:03;-0.90;99.90
24382;DHT22;12502;50.678;7.172;2022-12-18T22:24:07;-0.90;99.90
24382;DHT22;12502;50.678;7.172;2022-12-18T22:29:16;-0.90;99.90
24382;DHT22;12502;50.678;7.172;2022-12-18T22:34:37;-0.80;99.90
24382;DHT22;12502;50.678;7.172;2022-12-18T22:39:39;-0.80;99.90
24382;DHT22;12502;50.678;7.172;2022-12-18T22:44:41;-0.80;99.90
24382;DHT22;12502;50.678;7.172;2022-12-18T22:49:42;-0.80;99.90
24382;DHT22;12502;50.678;7.172;2022-12-18T22:54:44;-0.80;99.90
24382;DHT22;12502;50.678;7.172;2022-12-18T22:59:47;-0.80;99.90
24382;DHT22;12502;50.678;7.172;2022-12-18T23:04:49;-0.80;99.90
24382;DHT22;12502;50.678;7.172;2022-12-18T23:09:51;-0.80;99.90
24382;DHT22;12502;50.678;7.172;2022-12-18T23:15:02;-0.70;99.90
24382;DHT22;12502;50.678;7.172;2022-12-18T23:20:04;-0.70;99.90
24382;DHT22;12502;50.678;7.172;2022-12-18T23:25:06;-0.70;99.90
24382;DHT22;12502;50.678;7.172;2022-12-18T23:30:08;-0.70;99.90
24382;DHT22;12502;50.678;7.172;2022-12-18T23:35:10;-0.60;99.90
24382;DHT22;12502;50.678;7.172;2022-12-18T23:40:16;-0.60;99.90
24382;DHT22;12502;50.678;7.172;2022-12-18T23:45:18;-0.60;99.90
24382;DHT22;12502;50.678;7.172;2022-12-18T23:50:19;-0.50;99.90
24382;DHT22;12502;50.678;7.172;2022-12-18T23:55:29;-0.50;99.90
